sensor_id;sensor_type;location;lat;lon;timestamp;P1;durP1;ratioP1;P2;durP2;ratioP2
41275;SDS011;27010;47.718;12.912;2023-11-19T00:02:26;0.83;;;0.80;;
41275;SDS011;27010;47.718;12.912;2023-11-19T00:05:28;0.50;;;0.50;;
41275;SDS011;27010;47.718;12.912;2023-11-19T00:08:31;0.80;;;0.60;;
41275;SDS011;27010;47.718;12.912;2023-11-19T00:11:36;0.53;;;0.53;;
41275;SDS011;27010;47.718;12.912;2023-11-19T00:14:38;1.23;;;0.70;;
41275;SDS011;27010;47.718;12.912;2023-11-19T00:17:41;1.43;;;0.70;;
41275;SDS011;27010;47.718;12.912;2023-11-19T00:20:47;1.80;;;1.10;;
41275;SDS011;27010;47.718;12.912;2023-11-19T00:23:49;1.80;;;1.30;;
41275;SDS011;27010;47.718;12.912;2023-11-19T00:26:53;1.77;;;1.07;;
41275;SDS011;27010;47.718;12.912;2023-11-19T00:29:55;1.27;;;0.80;;
41275;SDS011;27010;47.718;12.912;2023-11-19T00:32:58;0.97;;;0.67;;
41275;SDS011;27010;47.718;12.912;2023-11-19T00:36:00;1.10;;;0.83;;
41275;SDS011;27010;47.718;12.912;2023-11-19T00:39:02;0.90;;;0.57;;
41275;SDS011;27010;47.718;12.912;2023-11-19T00:42:05;0.70;;;0.70;;
41275;SDS011;27010;47.718;12.912;2023-11-19T00:45:11;0.83;;;0.83;;
41275;SDS011;27010;47.718;12.912;2023-11-19T00:48:15;0.80;;;0.60;;
41275;SDS011;27010;47.718;12.912;2023-11-19T00:51:17;0.70;;;0.47;;
41275;SDS011;27010;47.718;12.912;2023-11-19T00:54:19;0.87;;;0.70;;
41275;SDS011;27010;47.718;12.912;2023-11-19T00:57:23;0.77;;;0.73;;
41275;SDS011;27010;47.718;12.912;2023-11-19T01:00:30;0.50;;;0.47;;
41275;SDS011;27010;47.718;12.912;2023-11-19T01:03:34;0.97;;;0.80;;
41275;SDS011;27010;47.718;12.912;2023-11-19T01:06:36;1.17;;;0.60;;
41275;SDS011;27010;47.718;12.912;2023-11-19T01:09:49;0.70;;;0.70;;
41275;SDS011;27010;47.718;12.912;2023-11-19T01:12:52;1.07;;;0.60;;
41275;SDS011;27010;47.718;12.912;2023-11-19T01:15:55;0.77;;;0.60;;
41275;SDS011;27010;47.718;12.912;2023-11-19T01:18:58;0.73;;;0.60;;
41275;SDS011;27010;47.718;12.912;2023-11-19T01:22:15;0.70;;;0.60;;
41275;SDS011;27010;47.718;12.912;2023-11-19T01:25:19;0.77;;;0.50;;
41275;SDS011;27010;47.718;12.912;2023-11-19T01:28:21;0.40;;;0.40;;
41275;SDS011;27010;47.718;12.912;2023-11-19T01:31:24;0.30;;;0.30;;
41275;SDS011;27010;47.718;12.912;2023-11-19T01:34:26;0.57;;;0.40;;
41275;SDS011;27010;47.718;12.912;2023-11-19T01:37:28;0.40;;;0.40;;
41275;SDS011;27010;47.718;12.912;2023-11-19T01:40:30;0.50;;;0.50;;
41275;SDS011;27010;47.718;12.912;2023-11-19T01:43:36;0.40;;;0.30;;
41275;SDS011;27010;47.718;12.912;2023-11-19T01:46:43;0.40;;;0.40;;
41275;SDS011;27010;47.718;12.912;2023-11-19T01:49:47;2.37;;;1.70;;
41275;SDS011;27010;47.718;12.912;2023-11-19T01:52:53;0.87;;;0.50;;
41275;SDS011;27010;47.718;12.912;2023-11-19T01:55:56;1.00;;;0.83;;
41275;SDS011;27010;47.718;12.912;2023-11-19T01:58:58;0.40;;;0.40;;
41275;SDS011;27010;47.718;12.912;2023-11-19T02:02:01;0.70;;;0.50;;
41275;SDS011;27010;47.718;12.912;2023-11-19T02:05:03;0.60;;;0.50;;
41275;SDS011;27010;47.718;12.912;2023-11-19T02:08:06;1.07;;;0.47;;
41275;SDS011;27010;47.718;12.912;2023-11-19T02:11:09;2.83;;;0.47;;
41275;SDS011;27010;47.718;12.912;2023-11-19T02:14:12;0.50;;;0.40;;
41275;SDS011;27010;47.718;12.912;2023-11-19T02:17:27;0.83;;;0.50;;
41275;SDS011;27010;47.718;12.912;2023-11-19T02:20:30;0.30;;;0.30;;
41275;SDS011;27010;47.718;12.912;2023-11-19T02:23:32;0.60;;;0.53;;
41275;SDS011;27010;47.718;12.912;2023-11-19T02:26:37;0.40;;;0.40;;
41275;SDS011;27010;47.718;12.912;2023-11-19T02:29:53;0.90;;;0.23;;
41275;SDS011;27010;47.718;12.912;2023-11-19T02:32:55;1.70;;;1.30;;
41275;SDS011;27010;47.718;12.912;2023-11-19T02:35:59;0.90;;;0.63;;
41275;SDS011;27010;47.718;12.912;2023-11-19T02:39:01;1.00;;;0.80;;
41275;SDS011;27010;47.718;12.912;2023-11-19T02:42:05;0.50;;;0.50;;
41275;SDS011;27010;47.718;12.912;2023-11-19T02:45:08;1.07;;;0.90;;
41275;SDS011;27010;47.718;12.912;2023-11-19T02:48:15;1.13;;;0.90;;
41275;SDS011;27010;47.718;12.912;2023-11-19T02:51:18;3.67;;;3.47;;
41275;SDS011;27010;47.718;12.912;2023-11-19T02:54:20;1.30;;;1.20;;
41275;SDS011;27010;47.718;12.912;2023-11-19T02:57:30;0.40;;;0.40;;
41275;SDS011;27010;47.718;12.912;2023-11-19T03:00:33;1.00;;;0.50;;
41275;SDS011;27010;47.718;12.912;2023-11-19T03:03:39;0.40;;;0.40;;
41275;SDS011;27010;47.718;12.912;2023-11-19T03:06:42;0.50;;;0.50;;
41275;SDS011;27010;47.718;12.912;2023-11-19T03:09:44;0.40;;;0.40;;
41275;SDS011;27010;47.718;12.912;2023-11-19T03:12:46;0.40;;;0.30;;
41275;SDS011;27010;47.718;12.912;2023-11-19T03:15:48;1.03;;;0.50;;
41275;SDS011;27010;47.718;12.912;2023-11-19T03:18:50;0.50;;;0.40;;
41275;SDS011;27010;47.718;12.912;2023-11-19T03:21:52;0.50;;;0.50;;
41275;SDS011;27010;47.718;12.912;2023-11-19T03:24:55;0.40;;;0.40;;
41275;SDS011;27010;47.718;12.912;2023-11-19T03:27:58;0.40;;;0.40;;
41275;SDS011;27010;47.718;12.912;2023-11-19T03:31:00;0.30;;;0.30;;
41275;SDS011;27010;47.718;12.912;2023-11-19T03:34:02;0.93;;;0.40;;
41275;SDS011;27010;47.718;12.912;2023-11-19T03:37:04;0.60;;;0.50;;
41275;SDS011;27010;47.718;12.912;2023-11-19T03:40:07;0.80;;;0.40;;
41275;SDS011;27010;47.718;12.912;2023-11-19T03:43:10;1.20;;;0.50;;
41275;SDS011;27010;47.718;12.912;2023-11-19T03:46:30;0.40;;;0.40;;
41275;SDS011;27010;47.718;12.912;2023-11-19T03:49:32;0.30;;;0.20;;
41275;SDS011;27010;47.718;12.912;2023-11-19T03:52:34;0.83;;;0.50;;
41275;SDS011;27010;47.718;12.912;2023-11-19T03:55:44;0.30;;;0.30;;
41275;SDS011;27010;47.718;12.912;2023-11-19T03:58:47;0.40;;;0.40;;
41275;SDS011;27010;47.718;12.912;2023-11-19T04:01:49;0.50;;;0.40;;
41275;SDS011;27010;47.718;12.912;2023-11-19T04:04:51;0.40;;;0.40;;
41275;SDS011;27010;47.718;12.912;2023-11-19T04:07:53;0.50;;;0.40;;
41275;SDS011;27010;47.718;12.912;2023-11-19T04:10:55;0.43;;;0.30;;
41275;SDS011;27010;47.718;12.912;2023-11-19T04:13:57;0.40;;;0.40;;
41275;SDS011;27010;47.718;12.912;2023-11-19T04:16:59;0.73;;;0.40;;
41275;SDS011;27010;47.718;12.912;2023-11-19T04:20:01;0.30;;;0.30;;
41275;SDS011;27010;47.718;12.912;2023-11-19T04:23:05;1.10;;;0.50;;
41275;SDS011;27010;47.718;12.912;2023-11-19T04:26:07;0.50;;;0.43;;
41275;SDS011;27010;47.718;12.912;2023-11-19T04:29:12;0.50;;;0.50;;
41275;SDS011;27010;47.718;12.912;2023-11-19T04:32:15;0.87;;;0.50;;
41275;SDS011;27010;47.718;12.912;2023-11-19T04:35:17;0.77;;;0.50;;
41275;SDS011;27010;47.718;12.912;2023-11-19T04:38:20;1.93;;;0.93;;
41275;SDS011;27010;47.718;12.912;2023-11-19T04:41:22;0.50;;;0.30;;
41275;SDS011;27010;47.718;12.912;2023-11-19T04:44:24;1.97;;;0.93;;
41275;SDS011;27010;47.718;12.912;2023-11-19T04:47:26;1.10;;;0.63;;
41275;SDS011;27010;47.718;12.912;2023-11-19T04:50:29;1.50;;;0.73;;
41275;SDS011;27010;47.718;12.912;2023-11-19T04:53:31;0.73;;;0.57;;
41275;SDS011;27010;47.718;12.912;2023-11-19T04:56:32;0.40;;;0.40;;
41275;SDS011;27010;47.718;12.912;2023-11-19T04:59:34;0.67;;;0.60;;
41275;SDS011;27010;47.718;12.912;2023-11-19T05:02:37;0.40;;;0.40;;
41275;SDS011;27010;47.718;12.912;2023-11-19T05:05:39;1.13;;;0.60;;
41275;SDS011;27010;47.718;12.912;2023-11-19T05:08:41;0.70;;;0.70;;
41275;SDS011;27010;47.718;12.912;2023-11-19T05:11:43;1.43;;;0.60;;
41275;SDS011;27010;47.718;12.912;2023-11-19T05:14:48;0.93;;;0.50;;
41275;SDS011;27010;47.718;12.912;2023-11-19T05:17:52;0.80;;;0.67;;
41275;SDS011;27010;47.718;12.912;2023-11-19T05:20:54;0.70;;;0.70;;
41275;SDS011;27010;47.718;12.912;2023-11-19T05:23:56;1.90;;;0.77;;
41275;SDS011;27010;47.718;12.912;2023-11-19T05:26:58;0.90;;;0.80;;
41275;SDS011;27010;47.718;12.912;2023-11-19T05:30:00;1.03;;;0.83;;
41275;SDS011;27010;47.718;12.912;2023-11-19T05:33:02;1.37;;;0.70;;
41275;SDS011;27010;47.718;12.912;2023-11-19T05:36:05;2.17;;;0.67;;
41275;SDS011;27010;47.718;12.912;2023-11-19T05:39:09;0.80;;;0.80;;
41275;SDS011;27010;47.718;12.912;2023-11-19T05:42:13;1.50;;;1.00;;
41275;SDS011;27010;47.718;12.912;2023-11-19T05:45:15;1.10;;;0.57;;
41275;SDS011;27010;47.718;12.912;2023-11-19T05:48:17;0.50;;;0.50;;
41275;SDS011;27010;47.718;12.912;2023-11-19T05:51:19;0.57;;;0.50;;
41275;SDS011;27010;47.718;12.912;2023-11-19T05:54:21;0.60;;;0.50;;
41275;SDS011;27010;47.718;12.912;2023-11-19T05:57:23;0.93;;;0.53;;
41275;SDS011;27010;47.718;12.912;2023-11-19T06:00:27;1.07;;;0.60;;
41275;SDS011;27010;47.718;12.912;2023-11-19T06:03:29;1.10;;;0.60;;
41275;SDS011;27010;47.718;12.912;2023-11-19T06:06:31;1.77;;;1.00;;
41275;SDS011;27010;47.718;12.912;2023-11-19T06:09:33;4.20;;;1.60;;
41275;SDS011;27010;47.718;12.912;2023-11-19T06:12:35;0.50;;;0.50;;
41275;SDS011;27010;47.718;12.912;2023-11-19T06:15:43;1.63;;;0.80;;
41275;SDS011;27010;47.718;12.912;2023-11-19T06:18:46;2.23;;;1.13;;
41275;SDS011;27010;47.718;12.912;2023-11-19T06:21:48;4.93;;;0.90;;
41275;SDS011;27010;47.718;12.912;2023-11-19T06:24:51;1.27;;;1.00;;
41275;SDS011;27010;47.718;12.912;2023-11-19T06:27:53;0.83;;;0.80;;
41275;SDS011;27010;47.718;12.912;2023-11-19T06:30:55;1.10;;;1.00;;
41275;SDS011;27010;47.718;12.912;2023-11-19T06:33:58;1.87;;;1.00;;
41275;SDS011;27010;47.718;12.912;2023-11-19T06:37:00;0.90;;;0.90;;
41275;SDS011;27010;47.718;12.912;2023-11-19T06:40:04;0.97;;;0.87;;
41275;SDS011;27010;47.718;12.912;2023-11-19T06:43:08;1.20;;;0.90;;
41275;SDS011;27010;47.718;12.912;2023-11-19T06:46:14;0.60;;;0.60;;
41275;SDS011;27010;47.718;12.912;2023-11-19T06:49:19;2.10;;;1.50;;
41275;SDS011;27010;47.718;12.912;2023-11-19T06:52:24;2.77;;;2.47;;
41275;SDS011;27010;47.718;12.912;2023-11-19T06:55:27;1.83;;;1.17;;
41275;SDS011;27010;47.718;12.912;2023-11-19T06:58:29;2.70;;;2.50;;
41275;SDS011;27010;47.718;12.912;2023-11-19T07:01:34;1.60;;;1.20;;
41275;SDS011;27010;47.718;12.912;2023-11-19T07:04:37;1.07;;;0.80;;
41275;SDS011;27010;47.718;12.912;2023-11-19T07:07:39;1.73;;;1.00;;
41275;SDS011;27010;47.718;12.912;2023-11-19T07:10:42;2.07;;;1.40;;
41275;SDS011;27010;47.718;12.912;2023-11-19T07:13:44;2.13;;;2.00;;
41275;SDS011;27010;47.718;12.912;2023-11-19T07:16:47;1.30;;;1.20;;
41275;SDS011;27010;47.718;12.912;2023-11-19T07:19:49;7.87;;;7.03;;
41275;SDS011;27010;47.718;12.912;2023-11-19T07:22:52;3.13;;;2.83;;
41275;SDS011;27010;47.718;12.912;2023-11-19T07:25:58;3.20;;;2.17;;
41275;SDS011;27010;47.718;12.912;2023-11-19T07:29:00;4.63;;;1.77;;
41275;SDS011;27010;47.718;12.912;2023-11-19T07:32:03;1.57;;;1.47;;
41275;SDS011;27010;47.718;12.912;2023-11-19T07:35:06;3.43;;;1.23;;
41275;SDS011;27010;47.718;12.912;2023-11-19T07:38:09;3.13;;;2.83;;
41275;SDS011;27010;47.718;12.912;2023-11-19T07:41:11;4.90;;;2.73;;
41275;SDS011;27010;47.718;12.912;2023-11-19T07:44:14;2.10;;;1.90;;
41275;SDS011;27010;47.718;12.912;2023-11-19T07:47:17;1.63;;;1.53;;
41275;SDS011;27010;47.718;12.912;2023-11-19T07:50:19;3.17;;;2.23;;
41275;SDS011;27010;47.718;12.912;2023-11-19T07:53:21;1.00;;;0.90;;
41275;SDS011;27010;47.718;12.912;2023-11-19T07:56:23;3.00;;;2.70;;
41275;SDS011;27010;47.718;12.912;2023-11-19T07:59:25;3.93;;;3.10;;
41275;SDS011;27010;47.718;12.912;2023-11-19T08:02:28;4.97;;;4.40;;
41275;SDS011;27010;47.718;12.912;2023-11-19T08:05:30;4.03;;;3.50;;
41275;SDS011;27010;47.718;12.912;2023-11-19T08:08:33;11.20;;;9.30;;
41275;SDS011;27010;47.718;12.912;2023-11-19T08:11:36;6.97;;;5.77;;
41275;SDS011;27010;47.718;12.912;2023-11-19T08:14:38;5.40;;;4.83;;
41275;SDS011;27010;47.718;12.912;2023-11-19T08:17:41;4.60;;;4.07;;
41275;SDS011;27010;47.718;12.912;2023-11-19T08:20:44;3.23;;;2.93;;
41275;SDS011;27010;47.718;12.912;2023-11-19T08:23:47;2.20;;;1.80;;
41275;SDS011;27010;47.718;12.912;2023-11-19T08:26:49;3.40;;;3.10;;
41275;SDS011;27010;47.718;12.912;2023-11-19T08:30:04;4.60;;;4.20;;
41275;SDS011;27010;47.718;12.912;2023-11-19T08:33:07;4.60;;;4.20;;
41275;SDS011;27010;47.718;12.912;2023-11-19T08:36:14;2.50;;;2.10;;
41275;SDS011;27010;47.718;12.912;2023-11-19T08:39:19;4.33;;;3.97;;
41275;SDS011;27010;47.718;12.912;2023-11-19T08:42:22;2.93;;;2.10;;
41275;SDS011;27010;47.718;12.912;2023-11-19T08:45:25;3.47;;;1.80;;
41275;SDS011;27010;47.718;12.912;2023-11-19T08:48:27;5.97;;;5.03;;
41275;SDS011;27010;47.718;12.912;2023-11-19T08:51:29;4.90;;;3.53;;
41275;SDS011;27010;47.718;12.912;2023-11-19T08:54:31;9.10;;;8.40;;
41275;SDS011;27010;47.718;12.912;2023-11-19T08:57:35;3.60;;;3.30;;
41275;SDS011;27010;47.718;12.912;2023-11-19T09:00:37;2.17;;;1.80;;
41275;SDS011;27010;47.718;12.912;2023-11-19T09:03:39;1.97;;;1.33;;
41275;SDS011;27010;47.718;12.912;2023-11-19T09:06:42;1.87;;;1.77;;
41275;SDS011;27010;47.718;12.912;2023-11-19T09:09:44;1.87;;;1.47;;
41275;SDS011;27010;47.718;12.912;2023-11-19T09:12:46;1.47;;;1.07;;
41275;SDS011;27010;47.718;12.912;2023-11-19T09:15:48;1.40;;;0.90;;
41275;SDS011;27010;47.718;12.912;2023-11-19T09:18:50;1.30;;;1.20;;
41275;SDS011;27010;47.718;12.912;2023-11-19T09:21:53;1.37;;;1.27;;
41275;SDS011;27010;47.718;12.912;2023-11-19T09:24:55;8.07;;;3.20;;
41275;SDS011;27010;47.718;12.912;2023-11-19T09:27:57;1.23;;;1.00;;
41275;SDS011;27010;47.718;12.912;2023-11-19T09:30:59;1.80;;;1.27;;
41275;SDS011;27010;47.718;12.912;2023-11-19T09:34:01;4.27;;;2.90;;
41275;SDS011;27010;47.718;12.912;2023-11-19T09:37:03;3.40;;;2.17;;
41275;SDS011;27010;47.718;12.912;2023-11-19T09:40:21;1.37;;;0.93;;
41275;SDS011;27010;47.718;12.912;2023-11-19T09:43:23;3.00;;;1.20;;
41275;SDS011;27010;47.718;12.912;2023-11-19T09:46:25;3.30;;;1.73;;
41275;SDS011;27010;47.718;12.912;2023-11-19T09:49:28;2.70;;;1.63;;
41275;SDS011;27010;47.718;12.912;2023-11-19T09:52:33;4.63;;;1.60;;
41275;SDS011;27010;47.718;12.912;2023-11-19T09:55:35;2.30;;;2.00;;
41275;SDS011;27010;47.718;12.912;2023-11-19T09:58:37;3.03;;;2.73;;
41275;SDS011;27010;47.718;12.912;2023-11-19T10:01:39;2.53;;;1.70;;
41275;SDS011;27010;47.718;12.912;2023-11-19T10:04:42;2.20;;;1.53;;
41275;SDS011;27010;47.718;12.912;2023-11-19T10:07:46;2.23;;;1.80;;
41275;SDS011;27010;47.718;12.912;2023-11-19T10:10:48;2.27;;;1.43;;
41275;SDS011;27010;47.718;12.912;2023-11-19T10:13:51;2.57;;;1.97;;
41275;SDS011;27010;47.718;12.912;2023-11-19T10:16:55;2.30;;;1.90;;
41275;SDS011;27010;47.718;12.912;2023-11-19T10:19:58;2.10;;;1.80;;
41275;SDS011;27010;47.718;12.912;2023-11-19T10:23:01;2.20;;;1.67;;
41275;SDS011;27010;47.718;12.912;2023-11-19T10:26:03;2.17;;;1.77;;
41275;SDS011;27010;47.718;12.912;2023-11-19T10:29:12;2.53;;;1.30;;
41275;SDS011;27010;47.718;12.912;2023-11-19T10:32:16;1.87;;;1.67;;
41275;SDS011;27010;47.718;12.912;2023-11-19T10:35:27;3.27;;;2.70;;
41275;SDS011;27010;47.718;12.912;2023-11-19T10:38:29;1.67;;;1.57;;
41275;SDS011;27010;47.718;12.912;2023-11-19T10:41:32;3.40;;;2.60;;
41275;SDS011;27010;47.718;12.912;2023-11-19T10:44:34;4.57;;;3.30;;
41275;SDS011;27010;47.718;12.912;2023-11-19T10:47:38;3.70;;;2.33;;
41275;SDS011;27010;47.718;12.912;2023-11-19T10:50:44;3.37;;;2.10;;
41275;SDS011;27010;47.718;12.912;2023-11-19T10:53:47;3.73;;;2.73;;
41275;SDS011;27010;47.718;12.912;2023-11-19T10:56:56;1.60;;;0.93;;
41275;SDS011;27010;47.718;12.912;2023-11-19T11:00:00;1.53;;;1.43;;
41275;SDS011;27010;47.718;12.912;2023-11-19T11:03:06;0.63;;;0.63;;
41275;SDS011;27010;47.718;12.912;2023-11-19T11:06:12;1.53;;;1.10;;
41275;SDS011;27010;47.718;12.912;2023-11-19T11:09:15;1.97;;;1.60;;
41275;SDS011;27010;47.718;12.912;2023-11-19T11:12:17;2.80;;;1.97;;
41275;SDS011;27010;47.718;12.912;2023-11-19T11:15:19;1.60;;;1.20;;
41275;SDS011;27010;47.718;12.912;2023-11-19T11:18:21;1.30;;;0.90;;
41275;SDS011;27010;47.718;12.912;2023-11-19T11:21:26;3.10;;;1.33;;
41275;SDS011;27010;47.718;12.912;2023-11-19T11:38:12;0.63;;;0.60;;
41275;SDS011;27010;47.718;12.912;2023-11-19T11:41:22;0.97;;;0.43;;
41275;SDS011;27010;47.718;12.912;2023-11-19T11:51:15;2.33;;;1.30;;
41275;SDS011;27010;47.718;12.912;2023-11-19T11:57:26;0.80;;;0.70;;
41275;SDS011;27010;47.718;12.912;2023-11-19T12:00:38;0.53;;;0.40;;
41275;SDS011;27010;47.718;12.912;2023-11-19T12:03:41;1.43;;;0.90;;
41275;SDS011;27010;47.718;12.912;2023-11-19T12:06:51;5.50;;;3.50;;
41275;SDS011;27010;47.718;12.912;2023-11-19T12:10:06;1.40;;;1.00;;
41275;SDS011;27010;47.718;12.912;2023-11-19T12:13:10;3.93;;;2.10;;
41275;SDS011;27010;47.718;12.912;2023-11-19T12:16:14;5.13;;;3.33;;
41275;SDS011;27010;47.718;12.912;2023-11-19T12:19:16;1.77;;;1.33;;
41275;SDS011;27010;47.718;12.912;2023-11-19T12:22:18;2.43;;;1.00;;
41275;SDS011;27010;47.718;12.912;2023-11-19T12:25:20;1.10;;;1.00;;
41275;SDS011;27010;47.718;12.912;2023-11-19T12:28:23;0.80;;;0.80;;
41275;SDS011;27010;47.718;12.912;2023-11-19T12:31:29;0.63;;;0.47;;
41275;SDS011;27010;47.718;12.912;2023-11-19T12:34:33;2.53;;;0.60;;
41275;SDS011;27010;47.718;12.912;2023-11-19T12:37:39;1.10;;;1.00;;
41275;SDS011;27010;47.718;12.912;2023-11-19T12:40:45;1.20;;;1.10;;
41275;SDS011;27010;47.718;12.912;2023-11-19T12:43:47;1.70;;;1.00;;
41275;SDS011;27010;47.718;12.912;2023-11-19T12:47:05;0.87;;;0.83;;
41275;SDS011;27010;47.718;12.912;2023-11-19T12:50:09;1.10;;;1.00;;
41275;SDS011;27010;47.718;12.912;2023-11-19T12:53:11;1.10;;;0.80;;
41275;SDS011;27010;47.718;12.912;2023-11-19T12:56:14;1.00;;;0.90;;
41275;SDS011;27010;47.718;12.912;2023-11-19T12:59:17;1.37;;;1.27;;
41275;SDS011;27010;47.718;12.912;2023-11-19T13:02:19;2.03;;;1.43;;
41275;SDS011;27010;47.718;12.912;2023-11-19T13:05:23;2.10;;;1.23;;
41275;SDS011;27010;47.718;12.912;2023-11-19T13:08:37;1.60;;;1.50;;
41275;SDS011;27010;47.718;12.912;2023-11-19T13:11:42;1.20;;;1.10;;
41275;SDS011;27010;47.718;12.912;2023-11-19T13:14:47;1.73;;;1.23;;
41275;SDS011;27010;47.718;12.912;2023-11-19T13:17:51;1.90;;;1.50;;
41275;SDS011;27010;47.718;12.912;2023-11-19T13:20:53;6.23;;;3.47;;
41275;SDS011;27010;47.718;12.912;2023-11-19T13:23:59;6.60;;;4.03;;
41275;SDS011;27010;47.718;12.912;2023-11-19T13:27:01;3.73;;;2.93;;
41275;SDS011;27010;47.718;12.912;2023-11-19T13:30:04;10.00;;;9.13;;
41275;SDS011;27010;47.718;12.912;2023-11-19T13:33:08;3.53;;;3.23;;
41275;SDS011;27010;47.718;12.912;2023-11-19T13:36:14;7.30;;;6.63;;
41275;SDS011;27010;47.718;12.912;2023-11-19T13:39:18;2.40;;;2.20;;
41275;SDS011;27010;47.718;12.912;2023-11-19T13:42:24;3.10;;;2.63;;
41275;SDS011;27010;47.718;12.912;2023-11-19T13:45:26;2.13;;;1.50;;
41275;SDS011;27010;47.718;12.912;2023-11-19T13:48:29;2.83;;;1.20;;
41275;SDS011;27010;47.718;12.912;2023-11-19T13:51:31;3.10;;;1.10;;
41275;SDS011;27010;47.718;12.912;2023-11-19T13:54:33;1.67;;;1.30;;
41275;SDS011;27010;47.718;12.912;2023-11-19T13:57:37;1.60;;;1.00;;
41275;SDS011;27010;47.718;12.912;2023-11-19T14:00:40;0.97;;;0.70;;
41275;SDS011;27010;47.718;12.912;2023-11-19T14:03:43;3.83;;;1.30;;
41275;SDS011;27010;47.718;12.912;2023-11-19T14:06:46;2.27;;;1.50;;
41275;SDS011;27010;47.718;12.912;2023-11-19T14:09:48;1.53;;;1.20;;
41275;SDS011;27010;47.718;12.912;2023-11-19T14:12:51;0.90;;;0.70;;
41275;SDS011;27010;47.718;12.912;2023-11-19T14:15:54;1.10;;;1.00;;
41275;SDS011;27010;47.718;12.912;2023-11-19T14:18:56;1.67;;;0.80;;
41275;SDS011;27010;47.718;12.912;2023-11-19T14:21:58;1.20;;;0.90;;
41275;SDS011;27010;47.718;12.912;2023-11-19T14:25:01;1.10;;;0.90;;
41275;SDS011;27010;47.718;12.912;2023-11-19T14:28:03;1.47;;;0.90;;
41275;SDS011;27010;47.718;12.912;2023-11-19T14:31:07;7.07;;;5.93;;
41275;SDS011;27010;47.718;12.912;2023-11-19T14:34:09;5.30;;;4.90;;
41275;SDS011;27010;47.718;12.912;2023-11-19T14:37:11;1.73;;;1.50;;
41275;SDS011;27010;47.718;12.912;2023-11-19T14:40:13;2.30;;;2.10;;
41275;SDS011;27010;47.718;12.912;2023-11-19T14:43:15;1.40;;;1.17;;
41275;SDS011;27010;47.718;12.912;2023-11-19T14:46:17;1.47;;;0.87;;
41275;SDS011;27010;47.718;12.912;2023-11-19T14:49:20;1.10;;;1.00;;
41275;SDS011;27010;47.718;12.912;2023-11-19T14:52:21;0.83;;;0.60;;
41275;SDS011;27010;47.718;12.912;2023-11-19T14:55:24;0.70;;;0.60;;
41275;SDS011;27010;47.718;12.912;2023-11-19T14:58:27;2.97;;;1.90;;
41275;SDS011;27010;47.718;12.912;2023-11-19T15:01:30;8.27;;;5.10;;
41275;SDS011;27010;47.718;12.912;2023-11-19T15:04:32;6.27;;;3.60;;
41275;SDS011;27010;47.718;12.912;2023-11-19T15:07:36;22.17;;;13.40;;
41275;SDS011;27010;47.718;12.912;2023-11-19T15:10:42;40.57;;;23.73;;
41275;SDS011;27010;47.718;12.912;2023-11-19T15:13:44;10.53;;;6.00;;
41275;SDS011;27010;47.718;12.912;2023-11-19T15:16:46;4.67;;;2.40;;
41275;SDS011;27010;47.718;12.912;2023-11-19T15:19:49;4.23;;;2.63;;
41275;SDS011;27010;47.718;12.912;2023-11-19T15:22:53;5.97;;;3.50;;
41275;SDS011;27010;47.718;12.912;2023-11-19T15:25:55;7.77;;;3.57;;
41275;SDS011;27010;47.718;12.912;2023-11-19T15:28:57;8.73;;;6.00;;
41275;SDS011;27010;47.718;12.912;2023-11-19T15:32:00;13.10;;;8.20;;
41275;SDS011;27010;47.718;12.912;2023-11-19T15:35:03;10.17;;;7.30;;
41275;SDS011;27010;47.718;12.912;2023-11-19T15:38:05;10.57;;;6.90;;
41275;SDS011;27010;47.718;12.912;2023-11-19T15:41:11;9.43;;;5.90;;
41275;SDS011;27010;47.718;12.912;2023-11-19T15:44:14;7.63;;;4.67;;
41275;SDS011;27010;47.718;12.912;2023-11-19T15:47:16;4.30;;;2.90;;
41275;SDS011;27010;47.718;12.912;2023-11-19T15:50:18;3.73;;;2.40;;
41275;SDS011;27010;47.718;12.912;2023-11-19T15:53:21;3.63;;;2.50;;
41275;SDS011;27010;47.718;12.912;2023-11-19T15:56:23;3.57;;;2.30;;
41275;SDS011;27010;47.718;12.912;2023-11-19T15:59:25;4.57;;;2.53;;
41275;SDS011;27010;47.718;12.912;2023-11-19T16:02:28;4.67;;;3.33;;
41275;SDS011;27010;47.718;12.912;2023-11-19T16:05:30;5.73;;;4.17;;
41275;SDS011;27010;47.718;12.912;2023-11-19T16:08:33;5.10;;;2.53;;
41275;SDS011;27010;47.718;12.912;2023-11-19T16:11:35;7.97;;;6.10;;
41275;SDS011;27010;47.718;12.912;2023-11-19T16:14:54;7.13;;;3.60;;
41275;SDS011;27010;47.718;12.912;2023-11-19T16:17:56;3.50;;;2.23;;
41275;SDS011;27010;47.718;12.912;2023-11-19T16:20:59;1.17;;;1.00;;
41275;SDS011;27010;47.718;12.912;2023-11-19T16:24:01;1.00;;;0.70;;
41275;SDS011;27010;47.718;12.912;2023-11-19T16:27:04;1.67;;;0.60;;
41275;SDS011;27010;47.718;12.912;2023-11-19T16:30:06;1.57;;;0.90;;
41275;SDS011;27010;47.718;12.912;2023-11-19T16:33:09;3.37;;;0.80;;
41275;SDS011;27010;47.718;12.912;2023-11-19T16:36:21;1.23;;;0.80;;
41275;SDS011;27010;47.718;12.912;2023-11-19T16:39:24;3.57;;;2.13;;
41275;SDS011;27010;47.718;12.912;2023-11-19T16:42:26;3.57;;;2.50;;
41275;SDS011;27010;47.718;12.912;2023-11-19T16:45:28;4.93;;;2.93;;
41275;SDS011;27010;47.718;12.912;2023-11-19T16:48:30;4.93;;;2.77;;
41275;SDS011;27010;47.718;12.912;2023-11-19T16:51:32;2.20;;;1.90;;
41275;SDS011;27010;47.718;12.912;2023-11-19T16:54:35;2.83;;;1.27;;
41275;SDS011;27010;47.718;12.912;2023-11-19T16:57:41;2.73;;;1.10;;
41275;SDS011;27010;47.718;12.912;2023-11-19T17:00:45;1.67;;;1.57;;
41275;SDS011;27010;47.718;12.912;2023-11-19T17:03:47;1.40;;;1.30;;
41275;SDS011;27010;47.718;12.912;2023-11-19T17:06:50;2.00;;;1.50;;
41275;SDS011;27010;47.718;12.912;2023-11-19T17:09:52;2.40;;;1.60;;
41275;SDS011;27010;47.718;12.912;2023-11-19T17:12:54;3.20;;;2.43;;
41275;SDS011;27010;47.718;12.912;2023-11-19T17:15:56;4.57;;;3.83;;
41275;SDS011;27010;47.718;12.912;2023-11-19T17:18:58;5.73;;;3.00;;
41275;SDS011;27010;47.718;12.912;2023-11-19T17:22:01;4.73;;;4.33;;
41275;SDS011;27010;47.718;12.912;2023-11-19T17:25:05;5.63;;;4.73;;
41275;SDS011;27010;47.718;12.912;2023-11-19T17:28:08;3.50;;;3.20;;
41275;SDS011;27010;47.718;12.912;2023-11-19T17:31:10;4.07;;;2.20;;
41275;SDS011;27010;47.718;12.912;2023-11-19T17:34:13;1.73;;;1.60;;
41275;SDS011;27010;47.718;12.912;2023-11-19T17:37:15;3.20;;;1.90;;
41275;SDS011;27010;47.718;12.912;2023-11-19T17:40:19;4.37;;;2.40;;
41275;SDS011;27010;47.718;12.912;2023-11-19T17:43:24;7.17;;;4.00;;
41275;SDS011;27010;47.718;12.912;2023-11-19T17:46:27;8.73;;;6.23;;
41275;SDS011;27010;47.718;12.912;2023-11-19T17:49:29;7.20;;;4.60;;
41275;SDS011;27010;47.718;12.912;2023-11-19T17:52:32;6.53;;;4.27;;
41275;SDS011;27010;47.718;12.912;2023-11-19T17:55:34;3.47;;;2.83;;
41275;SDS011;27010;47.718;12.912;2023-11-19T17:58:36;3.20;;;1.87;;
41275;SDS011;27010;47.718;12.912;2023-11-19T18:01:39;3.87;;;2.27;;
41275;SDS011;27010;47.718;12.912;2023-11-19T18:04:45;1.67;;;1.17;;
41275;SDS011;27010;47.718;12.912;2023-11-19T18:07:50;0.90;;;0.80;;
41275;SDS011;27010;47.718;12.912;2023-11-19T18:10:53;0.60;;;0.50;;
41275;SDS011;27010;47.718;12.912;2023-11-19T18:13:56;1.93;;;1.20;;
41275;SDS011;27010;47.718;12.912;2023-11-19T18:17:10;1.13;;;0.90;;
41275;SDS011;27010;47.718;12.912;2023-11-19T18:20:31;6.60;;;0.90;;
41275;SDS011;27010;47.718;12.912;2023-11-19T18:23:33;0.90;;;0.80;;
41275;SDS011;27010;47.718;12.912;2023-11-19T18:26:35;1.40;;;1.30;;
41275;SDS011;27010;47.718;12.912;2023-11-19T18:29:42;2.23;;;0.90;;
41275;SDS011;27010;47.718;12.912;2023-11-19T18:32:45;5.10;;;0.73;;